Iranshahr, Iran
Current Conditions -  °F | °C
As of 11:00 PM on Thursday 29 Jan 2015 (Local Time) from OIZI Reporting Station
Clear Clear  
Wind Chill: 57°   Ceiling: Unl
Heat Index: 57°   Visibility: 6mi
Dew Point: 32°   Wind: 0mph
Humidity: 38%   Direction: NA
Pressure: 30.12"   Gusts: NA
Location:  27.21°N, 60.69°E
Report Text: OIZI 292000Z 00000KT CAVOK 14/00 Q1020
Loading
Personal Weather Stations






























Interactive Weather Map New forecast layout! Learn more

10-Day Weather Forecast

Advertisements
Track Severe Weather on mobile